Time;durP1;ratioP1;P1;durP2;ratioP2;P2;SDS_P1;SDS_P2;PMS_P1;PMS_P2;Temp;Humidity;BMP_temperature;BMP_pressure;BME280_temperature;BME280_humidity;BME280_pressure;Samples;Min_cycle;Max_cycle;Signal;HPM_P1;HPM_P2
2021/04/16 00:02:07;;;;;;;8.00;4.93;;;;;;;1.87;72.41;101489.09;5017299;28;20731;-69
2021/04/16 00:04:34;;;;;;;8.68;5.38;;;;;;;1.83;72.45;101488.22;5016692;28;20100;-71
2021/04/16 00:07:00;;;;;;;10.13;5.43;;;;;;;1.87;72.62;101489.09;5017441;28;20111;-69
2021/04/16 00:09:27;;;;;;;9.43;5.72;;;;;;;1.89;72.90;101479.41;5016611;28;20062;-70
2021/04/16 00:11:53;;;;;;;9.70;5.38;;;;;;;1.83;73.20;101480.31;5017389;28;20054;-70
2021/04/16 00:14:20;;;;;;;11.68;6.03;;;;;;;1.82;73.00;101481.22;5017014;28;20061;-72
2021/04/16 00:16:47;;;;;;;10.27;6.35;;;;;;;1.79;73.16;101475.09;5017251;28;20443;-70
2021/04/16 00:19:14;;;;;;;9.95;5.35;;;;;;;1.78;72.82;101475.97;5017122;28;20050;-69
2021/04/16 00:21:40;;;;;;;8.07;5.57;;;;;;;1.68;73.18;101464.59;5016971;28;20050;-71
2021/04/16 00:24:12;;;;;;;10.82;6.03;;;;;;;1.79;73.03;101469.81;5016951;28;20327;-68
2021/04/16 00:26:42;;;;;;;9.35;5.38;;;;;;;1.68;73.10;101468.09;5016136;28;20053;-72
2021/04/16 00:29:08;;;;;;;7.90;5.53;;;;;;;1.71;73.12;101467.19;5016193;28;20328;-69
2021/04/16 00:31:36;;;;;;;11.85;6.15;;;;;;;1.68;73.12;101461.97;5016913;28;20049;-69
2021/04/16 00:34:03;;;;;;;8.63;5.30;;;;;;;1.51;73.90;101456.75;5015926;28;20054;-70
2021/04/16 00:36:31;;;;;;;13.13;5.78;;;;;;;1.59;73.57;101460.22;5016145;28;20382;-70
2021/04/16 00:38:58;;;;;;;9.95;6.20;;;;;;;1.51;74.11;101464.63;5016594;28;20062;-70
2021/04/16 00:41:30;;;;;;;11.52;6.35;;;;;;;1.54;73.48;101454.97;5016898;28;20050;-71
2021/04/16 00:43:56;;;;;;;9.15;6.07;;;;;;;1.53;74.02;101458.47;5016858;28;20452;-69
2021/04/16 00:46:41;;;;;;;8.50;6.20;;;;;;;1.53;73.87;101454.97;5016584;28;20332;-71
2021/04/16 00:49:13;;;;;;;8.40;6.03;;;;;;;1.47;73.94;101451.47;5016947;28;20084;-70
2021/04/16 00:52:05;;;;;;;12.70;6.45;;;;;;;1.41;74.02;101459.38;5016496;28;20423;-68
2021/04/16 00:54:35;;;;;;;9.95;6.22;;;;;;;1.41;74.70;101455.88;5015331;28;20441;-68
2021/04/16 00:57:03;;;;;;;11.40;5.95;;;;;;;1.39;74.53;101455.88;5016724;28;20073;-71
2021/04/16 00:59:31;;;;;;;15.20;6.38;;;;;;;1.40;74.47;101457.63;5016617;28;20057;-73
2021/04/16 01:02:00;;;;;;;16.15;6.40;;;;;;;1.40;74.53;101446.22;5016424;28;20490;-69
2021/04/16 01:04:28;;;;;;;10.00;6.30;;;;;;;1.39;74.52;101447.09;5016112;28;20343;-70
2021/04/16 01:06:54;;;;;;;11.63;5.90;;;;;;;1.33;74.89;101442.72;5016272;28;20052;-70
2021/04/16 01:09:21;;;;;;;9.02;6.13;;;;;;;1.26;75.09;101444.50;5016171;28;20438;-73
2021/04/16 01:11:47;;;;;;;10.77;5.65;;;;;;;1.19;75.45;101441.00;5015379;28;20069;-73
2021/04/16 01:14:14;;;;;;;10.93;5.97;;;;;;;1.22;75.42;101443.63;5016085;28;20103;-70
2021/04/16 01:16:41;;;;;;;16.83;9.15;;;;;;;1.21;75.41;101441.00;5015427;28;20073;-70
2021/04/16 01:19:17;;;;;;;11.60;7.97;;;;;;;1.10;75.31;101430.50;5015948;28;20057;-70
2021/04/16 01:21:54;;;;;;;12.88;6.28;;;;;;;1.12;76.08;101436.63;5016292;28;20405;-70
2021/04/16 01:24:29;;;;;;;10.90;6.40;;;;;;;1.10;75.44;101441.03;5016221;28;20107;-68
2021/04/16 01:26:56;;;;;;;10.80;6.88;;;;;;;1.04;75.68;101434.00;5016373;28;20053;-72
2021/04/16 01:29:24;;;;;;;10.43;6.25;;;;;;;1.06;75.23;101437.53;5016065;28;20057;-69
2021/04/16 01:31:51;;;;;;;10.15;6.18;;;;;;;1.10;75.44;101433.13;5015838;28;20049;-72
2021/04/16 01:34:24;;;;;;;13.02;6.65;;;;;;;0.86;75.79;101402.50;5015833;28;20058;-71
2021/04/16 01:36:52;;;;;;;10.32;6.65;;;;;;;0.94;75.92;101427.00;5015879;28;20423;-71
2021/04/16 01:39:20;;;;;;;10.52;6.93;;;;;;;1.04;76.03;101446.28;5015636;28;20511;-70
2021/04/16 01:41:46;;;;;;;12.05;6.57;;;;;;;0.92;76.38;101434.88;5014476;28;20049;-72
2021/04/16 01:44:17;;;;;;;11.30;7.45;;;;;;;0.93;76.01;101434.00;5015641;28;20432;-71
2021/04/16 01:46:59;;;;;;;12.07;7.07;;;;;;;0.99;75.89;101445.41;5014873;28;20054;-69
2021/04/16 01:49:37;;;;;;;14.00;6.65;;;;;;;0.87;76.76;101439.25;5014904;28;20057;-73
2021/04/16 01:52:05;;;;;;;12.65;6.50;;;;;;;0.83;76.46;101429.66;5015731;28;20057;-71
2021/04/16 01:54:35;;;;;;;10.93;7.20;;;;;;;0.81;76.81;101437.53;5015378;28;20395;-70
2021/04/16 01:57:08;;;;;;;14.80;7.15;;;;;;;0.80;76.64;101432.25;5015616;28;20454;-70
2021/04/16 01:59:37;;;;;;;16.92;6.95;;;;;;;0.69;77.04;101436.66;5015455;28;20097;-69
2021/04/16 02:02:06;;;;;;;10.98;7.22;;;;;;;0.72;77.54;101434.00;5015657;28;20053;-70
2021/04/16 02:04:32;;;;;;;12.13;6.32;;;;;;;0.70;77.04;101428.75;5015334;28;20058;-69
2021/04/16 02:06:59;;;;;;;14.48;6.93;;;;;;;0.69;76.80;101431.41;5014390;28;20049;-72
2021/04/16 02:09:29;;;;;;;10.30;6.85;;;;;;;0.69;77.09;101420.88;5015525;28;20058;-73
2021/04/16 02:11:55;;;;;;;12.07;7.60;;;;;;;0.73;76.79;101427.88;5015257;28;20407;-70
2021/04/16 02:14:25;;;;;;;12.40;7.07;;;;;;;0.56;77.27;101410.38;5015065;28;20708;-72
2021/04/16 02:16:56;;;;;;;8.95;6.55;;;;;;;0.59;77.45;101409.50;5015463;28;20050;-70
2021/04/16 02:19:23;;;;;;;11.93;7.50;;;;;;;0.61;77.17;101411.22;5015362;28;20143;-70
2021/04/16 02:21:50;;;;;;;11.10;6.65;;;;;;;0.62;76.73;101413.00;5014304;28;20104;-72
2021/04/16 02:24:17;;;;;;;16.05;7.45;;;;;;;0.62;77.08;101420.88;5015124;28;20061;-72
2021/04/16 02:26:43;;;;;;;9.35;7.05;;;;;;;0.69;76.37;101416.47;5015082;28;20046;-69
2021/04/16 02:29:12;;;;;;;12.27;6.68;;;;;;;0.60;76.81;101416.50;5015067;28;20057;-70
2021/04/16 02:31:42;;;;;;;13.30;7.20;;;;;;;0.66;77.37;101417.34;5015376;28;20054;-71
2021/04/16 02:34:10;;;;;;;;;;;;;;;0.64;77.41;101418.22;5015357;28;20325;-69
2021/04/16 02:36:37;;;;;;;13.50;7.43;;;;;;;0.61;76.98;101419.09;5014052;28;19933;-72
2021/04/16 02:39:05;;;;;;;11.10;7.32;;;;;;;0.54;77.24;101407.72;5014265;28;20057;-70
2021/04/16 02:41:33;;;;;;;12.07;7.40;;;;;;;0.53;77.58;101407.72;5014867;28;20427;-70
2021/04/16 02:43:59;;;;;;;13.30;7.47;;;;;;;0.53;77.27;101410.34;5015242;28;20104;-69
2021/04/16 02:46:25;;;;;;;14.77;8.05;;;;;;;0.52;77.22;101409.47;5015040;28;20046;-71
2021/04/16 02:48:51;;;;;;;12.13;7.90;;;;;;;0.47;77.80;101405.09;5015219;28;20140;-69
2021/04/16 02:51:18;;;;;;;15.35;8.38;;;;;;;0.50;78.04;101415.59;5015220;28;20462;-68
2021/04/16 02:53:44;;;;;;;18.83;8.05;;;;;;;0.44;78.21;101418.22;5015071;28;20050;-70
2021/04/16 02:56:10;;;;;;;16.63;7.78;;;;;;;0.43;77.86;101409.44;5014928;28;20104;-72
2021/04/16 02:58:36;;;;;;;12.90;8.38;;;;;;;0.42;77.99;101414.72;5018097;28;20086;-70
2021/04/16 03:01:03;;;;;;;13.98;8.52;;;;;;;0.43;78.36;101413.84;5018774;28;20054;-68
2021/04/16 03:03:30;;;;;;;15.85;8.57;;;;;;;0.37;78.26;101406.81;5018645;28;20058;-72
2021/04/16 03:05:57;;;;;;;14.45;7.75;;;;;;;0.42;77.90;101417.34;5018504;28;20046;-68
2021/04/16 03:08:23;;;;;;;13.48;7.50;;;;;;;0.37;78.03;101406.81;5018796;28;20107;-68
2021/04/16 03:10:50;;;;;;;10.25;7.43;;;;;;;0.38;78.15;101403.34;5018578;28;20053;-70
2021/04/16 03:13:17;;;;;;;14.13;8.85;;;;;;;0.35;78.42;101416.44;5018180;28;20431;-72
2021/04/16 03:15:45;;;;;;;13.23;8.15;;;;;;;0.23;78.51;101398.94;5018340;28;20049;-69
2021/04/16 03:18:11;;;;;;;18.02;8.10;;;;;;;0.32;78.63;101416.47;5017614;28;20046;-68
2021/04/16 03:20:38;;;;;;;11.88;8.50;;;;;;;0.33;78.29;101419.06;5018269;28;20061;-70
2021/04/16 03:23:04;;;;;;;17.38;7.80;;;;;;;0.20;78.71;101414.66;5018418;28;20049;-70
2021/04/16 03:25:30;;;;;;;11.60;8.05;;;;;;;0.22;78.72;101415.56;5017919;28;20045;-69
2021/04/16 03:27:57;;;;;;;10.93;7.70;;;;;;;0.19;79.31;101421.69;5018329;28;20058;-69
2021/04/16 03:30:25;;;;;;;13.13;9.73;;;;;;;0.23;79.60;101422.56;5018311;28;20045;-70
2021/04/16 03:32:51;;;;;;;17.48;8.40;;;;;;;0.24;78.87;101419.94;5018033;28;20054;-72
2021/04/16 03:35:19;;;;;;;12.93;8.75;;;;;;;0.23;79.42;101418.16;5017894;28;20440;-69
2021/04/16 03:37:46;;;;;;;12.00;8.20;;;;;;;0.17;79.11;101415.56;5017857;28;20424;-70
2021/04/16 03:40:15;;;;;;;15.02;8.88;;;;;;;0.19;79.66;101420.78;5018085;28;20068;-71
2021/04/16 03:42:41;;;;;;;17.63;8.45;;;;;;;0.18;79.13;101411.16;5017959;28;20080;-67
2021/04/16 03:45:09;;;;;;;12.50;8.80;;;;;;;0.18;79.46;101411.16;5016950;28;20104;-68
2021/04/16 03:47:35;;;;;;;16.13;8.85;;;;;;;0.15;79.49;101406.78;5017854;28;20046;-71
2021/04/16 03:50:02;;;;;;;22.30;9.10;;;;;;;0.25;78.84;101407.69;5017573;28;20390;-71
2021/04/16 03:52:29;;;;;;;18.17;8.77;;;;;;;0.19;79.55;101405.03;5017737;28;20077;-69
2021/04/16 03:54:56;;;;;;;16.70;8.77;;;;;;;0.20;79.64;101412.03;5017546;28;20351;-70
2021/04/16 03:57:22;;;;;;;15.98;8.75;;;;;;;0.20;79.47;101412.94;5017675;28;20329;-69
2021/04/16 03:59:49;;;;;;;19.65;8.43;;;;;;;0.19;79.27;101410.28;5017683;28;20108;-70
2021/04/16 04:02:15;;;;;;;12.13;8.23;;;;;;;0.22;79.78;101415.56;5017589;28;20108;-70
2021/04/16 04:04:41;;;;;;;13.20;8.23;;;;;;;0.18;79.28;101403.28;5017410;28;20383;-69
2021/04/16 04:07:08;;;;;;;19.42;8.75;;;;;;;0.25;78.93;101410.31;5016677;28;20061;-71
2021/04/16 04:09:35;;;;;;;16.80;9.48;;;;;;;0.28;79.65;101415.59;5016205;28;20060;-71
2021/04/16 04:12:03;;;;;;;11.57;8.27;;;;;;;0.28;79.45;101415.59;5016311;28;20387;-71
2021/04/16 04:14:29;;;;;;;11.52;8.48;;;;;;;0.25;79.05;101415.56;5016736;28;20053;-71
2021/04/16 04:17:01;;;;;;;19.25;8.18;;;;;;;0.21;79.21;101425.19;5017069;28;20193;-68
2021/04/16 04:19:29;;;;;;;15.25;8.57;;;;;;;0.25;79.79;101426.06;5016780;28;20383;-68
2021/04/16 04:21:57;;;;;;;12.90;8.93;;;;;;;0.19;79.62;101423.41;5017995;28;20129;-70
2021/04/16 04:24:24;;;;;;;16.38;8.30;;;;;;;0.22;79.61;101424.31;5018045;28;20131;-70
2021/04/16 04:26:51;;;;;;;17.92;9.25;;;;;;;0.19;79.48;101412.91;5018942;28;20042;-72
2021/04/16 04:29:20;;;;;;;15.13;8.90;;;;;;;0.28;79.89;101420.84;5017522;28;20046;-70
2021/04/16 04:31:47;;;;;;;18.52;8.98;;;;;;;0.32;79.22;101422.56;5016820;28;20058;-72
2021/04/16 04:34:25;;;;;;;13.43;8.77;;;;;;;0.32;79.47;101417.31;5016833;28;20133;-68
2021/04/16 04:36:55;;;;;;;26.80;8.88;;;;;;;0.40;79.32;101415.56;5016939;28;20046;-71
2021/04/16 04:39:23;;;;;;;17.58;8.60;;;;;;;0.46;79.60;101421.72;5018234;28;20077;-72
2021/04/16 04:41:49;;;;;;;13.27;9.45;;;;;;;0.47;78.97;101402.44;5017072;28;20101;-72
2021/04/16 04:44:16;;;;;;;15.27;8.57;;;;;;;0.49;79.37;101413.84;5017483;28;20053;-71
2021/04/16 04:46:42;;;;;;;17.42;8.32;;;;;;;0.56;79.26;101423.50;5015948;28;20100;-70
2021/04/16 04:49:10;;;;;;;15.43;8.90;;;;;;;0.71;79.07;101421.75;5015834;28;20451;-71
2021/04/16 04:51:37;;;;;;;16.02;9.40;;;;;;;0.66;78.51;101421.75;5042453;28;20053;-70
2021/04/16 04:54:05;;;;;;;15.07;8.20;;;;;;;0.71;78.91;101427.88;5014972;28;20144;-70
2021/04/16 04:56:31;;;;;;;15.25;8.57;;;;;;;0.75;79.36;101432.25;5014324;28;20050;-69
2021/04/16 04:58:57;;;;;;;12.95;8.25;;;;;;;0.74;79.48;101427.00;5015251;28;20053;-70
2021/04/16 05:01:23;;;;;;;13.35;8.57;;;;;;;0.88;78.72;101433.13;5015431;28;20050;-69
2021/04/16 05:03:50;;;;;;;12.05;8.43;;;;;;;1.02;78.10;101435.75;4999195;28;20049;-71
2021/04/16 05:06:16;;;;;;;12.73;7.82;;;;;;;1.03;77.96;101437.50;5016437;28;20050;-70
2021/04/16 05:08:42;;;;;;;12.43;8.25;;;;;;;1.03;78.29;101439.28;5016352;28;20451;-71
2021/04/16 05:11:10;;;;;;;15.68;8.07;;;;;;;1.06;78.11;101431.38;5015330;28;20107;-71
2021/04/16 05:13:36;;;;;;;14.02;7.95;;;;;;;1.01;78.72;101438.38;5016437;28;20057;-68
2021/04/16 05:16:03;;;;;;;13.70;7.82;;;;;;;1.03;78.46;101431.41;5014905;28;20057;-72
2021/04/16 05:18:30;;;;;;;16.83;7.32;;;;;;;1.06;78.42;101436.63;5015548;28;20053;-70
2021/04/16 05:20:56;;;;;;;18.40;7.80;;;;;;;1.19;78.57;101435.75;5013986;28;20470;-69
2021/04/16 05:23:22;;;;;;;10.88;7.18;;;;;;;1.22;78.26;101437.50;5015479;28;20427;-70
2021/04/16 05:25:49;;;;;;;11.52;7.85;;;;;;;1.32;77.46;101441.84;5016098;28;20061;-70
2021/04/16 05:28:15;;;;;;;14.93;7.82;;;;;;;1.38;76.88;101432.19;5014775;28;20050;-71
2021/04/16 05:30:41;;;;;;;13.40;7.70;;;;;;;1.42;76.74;101419.03;5016197;28;20053;-72
2021/04/16 05:33:07;;;;;;;15.70;8.45;;;;;;;1.44;77.23;101432.19;5014765;28;20054;-70
2021/04/16 05:35:34;;;;;;;9.68;7.63;;;;;;;1.49;76.84;101415.50;5014888;28;20050;-70
2021/04/16 05:38:00;;;;;;;12.88;7.63;;;;;;;1.57;76.38;101425.16;5015650;28;20046;-69
2021/04/16 05:40:27;;;;;;;12.73;6.95;;;;;;;1.67;76.50;101426.84;5015599;28;20061;-70
2021/04/16 05:42:54;;;;;;;9.90;6.47;;;;;;;1.70;76.62;101432.09;5015791;28;20050;-71
2021/04/16 05:45:22;;;;;;;15.23;8.75;;;;;;;1.73;76.22;101421.56;5015718;28;20424;-74
2021/04/16 05:47:49;;;;;;;12.57;7.38;;;;;;;1.86;75.81;101430.28;5015406;28;20137;-68
2021/04/16 05:50:17;;;;;;;13.32;7.85;;;;;;;1.95;75.26;101439.03;5015600;28;20395;-69
2021/04/16 05:52:43;;;;;;;11.48;7.95;;;;;;;1.95;74.64;101432.00;5015553;28;20049;-70
2021/04/16 05:55:11;;;;;;;10.52;7.20;;;;;;;2.07;74.43;101446.88;5014589;28;20057;-70
2021/04/16 05:57:43;;;;;;;11.50;7.25;;;;;;;2.09;74.58;101441.59;5015290;28;20128;-70
2021/04/16 06:00:11;;;;;;;14.32;7.78;;;;;;;1.96;74.32;101430.25;5014563;28;20132;-72
2021/04/16 06:02:39;;;;;;;12.73;7.60;;;;;;;2.01;74.41;101431.97;5014189;28;20057;-72
2021/04/16 06:05:09;;;;;;;12.65;8.05;;;;;;;2.07;73.98;101436.31;5008879;28;20058;-69
2021/04/16 06:07:36;;;;;;;15.23;7.50;;;;;;;2.13;73.53;101440.72;5015159;28;20321;-71
2021/04/16 06:10:05;;;;;;;13.32;8.00;;;;;;;2.14;73.46;101440.69;5013281;28;20597;-71
2021/04/16 06:12:31;;;;;;;13.85;8.00;;;;;;;2.13;72.88;101432.81;5013652;28;20049;-71
2021/04/16 06:14:57;;;;;;;10.90;7.78;;;;;;;2.20;72.39;101450.34;5013810;28;20053;-72
2021/04/16 06:17:24;;;;;;;12.98;8.55;;;;;;;2.13;72.92;101444.19;5015492;28;20054;-70
2021/04/16 06:19:50;;;;;;;15.20;8.40;;;;;;;2.09;73.26;101437.22;5015415;28;20057;-72
2021/04/16 06:22:19;;;;;;;15.60;8.23;;;;;;;2.08;73.73;101435.47;5015489;28;20081;-71
2021/04/16 06:24:46;;;;;;;12.75;8.20;;;;;;;2.12;73.82;101441.59;5014425;28;20056;-69
2021/04/16 06:27:14;;;;;;;12.68;8.55;;;;;;;2.09;73.25;101444.22;5014475;28;20424;-70
2021/04/16 06:29:40;;;;;;;14.25;8.02;;;;;;;2.13;73.65;101430.19;5013493;28;20060;-70
2021/04/16 06:32:07;;;;;;;12.48;8.10;;;;;;;2.19;72.94;101434.53;5014392;28;20104;-70
2021/04/16 06:34:33;;;;;;;17.48;9.88;;;;;;;2.17;73.29;101429.25;5018724;28;20447;-71
2021/04/16 06:37:00;;;;;;;11.43;7.57;;;;;;;2.19;73.27;101432.78;5018866;28;20084;-72
2021/04/16 06:39:30;;;;;;;10.73;7.38;;;;;;;2.10;73.72;101417.00;5033755;28;20351;-73
2021/04/16 06:42:00;;;;;;;10.70;7.43;;;;;;;2.24;73.45;101423.06;5014681;28;20070;-74
2021/04/16 06:44:31;;;;;;;13.70;7.63;;;;;;;2.27;73.56;101416.91;5017743;28;20061;-71
2021/04/16 06:47:24;;;;;;;16.52;9.35;;;;;;;2.30;73.73;101438.84;5016817;28;20125;-72
2021/04/16 06:49:55;;;;;;;13.63;8.82;;;;;;;2.25;74.03;101414.31;5013557;28;20049;-70
2021/04/16 06:52:33;;;;;;;11.65;8.20;;;;;;;2.51;74.02;101447.50;5018932;28;20447;-70
2021/04/16 06:55:11;;;;;;;11.05;7.68;;;;;;;2.69;73.46;101443.00;5016109;28;20053;-72
2021/04/16 06:57:42;;;;;;;11.13;7.95;;;;;;;2.82;72.85;101447.28;5018098;28;20494;-73
2021/04/16 07:00:12;;;;;;;14.52;7.05;;;;;;;2.90;71.74;101449.88;5015924;28;20450;-71
2021/04/16 07:02:49;;;;;;;12.20;7.20;;;;;;;3.02;71.56;101442.72;5018535;28;20058;-73
2021/04/16 07:05:33;;;;;;;16.10;7.47;;;;;;;3.20;71.38;101431.13;5039026;28;20412;-74
2021/04/16 07:08:00;;;;;;;13.10;6.88;;;;;;;3.25;70.29;101453.06;5016906;28;20052;-70
2021/04/16 07:10:30;;;;;;;12.27;6.60;;;;;;;3.27;70.50;101451.28;5018305;28;20050;-71
2021/04/16 07:13:01;;;;;;;14.30;7.35;;;;;;;3.45;69.56;101454.63;5018187;28;20096;-71
2021/04/16 07:15:36;;;;;;;10.25;6.78;;;;;;;3.46;69.65;101451.97;5015407;28;20054;-71
2021/04/16 07:18:04;;;;;;;16.38;6.25;;;;;;;3.59;69.52;101457.13;5018299;28;20042;-69
2021/04/16 07:20:30;;;;;;;14.43;6.63;;;;;;;3.56;68.41;101447.47;5017186;28;20084;-69
2021/04/16 07:22:57;;;;;;;10.38;6.50;;;;;;;3.71;68.45;101450.84;5017514;28;20103;-69
2021/04/16 07:25:33;;;;;;;18.00;7.28;;;;;;;3.69;68.10;101452.63;5018227;28;20049;-68
2021/04/16 07:28:03;;;;;;;12.93;7.25;;;;;;;3.75;68.75;101448.13;5018111;28;20140;-71
2021/04/16 07:30:38;;;;;;;13.85;6.78;;;;;;;3.74;68.33;101458.72;5016995;28;20058;-69
2021/04/16 07:33:29;;;;;;;15.25;7.15;;;;;;;3.82;69.04;101456.88;5018027;28;20057;-71
2021/04/16 07:36:19;;;;;;;17.27;6.88;;;;;;;3.94;68.67;101450.56;5018232;28;20112;-70
2021/04/16 07:39:15;;;;;;;22.23;8.45;;;;;;;3.95;67.95;101449.66;5018423;28;20105;-72
2021/04/16 07:41:45;;;;;;;11.82;6.60;;;;;;;4.09;68.22;101452.13;5018110;28;20077;-71
2021/04/16 07:44:25;;;;;;;10.45;7.05;;;;;;;4.03;67.64;101447.78;5018125;28;20108;-71
2021/04/16 07:46:54;;;;;;;15.82;7.97;;;;;;;4.22;67.51;101463.41;5018052;28;20046;-70
2021/04/16 07:49:33;;;;;;;13.43;7.10;;;;;;;4.26;66.69;101457.19;5016599;28;20136;-73
2021/04/16 07:52:23;;;;;;;13.02;7.45;;;;;;;4.39;67.80;101454.34;5018114;28;20336;-73
2021/04/16 07:55:04;;;;;;;14.52;6.97;;;;;;;4.42;66.44;101449.03;5018050;28;20057;-71
2021/04/16 07:57:30;;;;;;;15.32;7.55;;;;;;;4.40;66.90;101434.97;5017742;28;20054;-73
2021/04/16 07:59:56;;;;;;;11.48;6.78;;;;;;;4.43;66.17;101441.09;5017352;28;20061;-72
2021/04/16 08:02:31;;;;;;;14.57;7.50;;;;;;;4.46;66.38;101442.78;5016530;28;20049;-74
2021/04/16 08:04:58;;;;;;;13.90;7.30;;;;;;;4.42;66.72;101438.47;5017323;28;20769;-72
2021/04/16 08:07:33;;;;;;;11.88;7.32;;;;;;;4.46;66.58;101438.41;5017412;28;20378;-74
2021/04/16 08:10:12;;;;;;;12.98;7.25;;;;;;;4.56;66.31;101436.47;5017239;28;20060;-71
2021/04/16 08:12:39;;;;;;;12.15;7.10;;;;;;;4.60;65.96;101439.97;5017072;28;20061;-70
2021/04/16 08:15:19;;;;;;;15.23;7.65;;;;;;;4.53;66.37;101435.66;5016933;28;20466;-70
2021/04/16 08:17:45;;;;;;;15.15;6.55;;;;;;;4.61;66.54;101433.75;5017594;28;20069;-73
2021/04/16 08:20:26;;;;;;;12.82;7.35;;;;;;;4.61;66.21;101431.13;5017145;28;20454;-71
2021/04/16 08:23:10;;;;;;;10.90;6.22;;;;;;;4.80;65.68;101433.47;5017378;28;20053;-69
2021/04/16 08:25:42;;;;;;;12.07;6.32;;;;;;;5.03;65.08;101433.94;5016927;28;20058;-71
2021/04/16 08:28:18;;;;;;;9.43;6.45;;;;;;;5.14;63.71;101425.81;5016910;28;20166;-70
2021/04/16 08:30:49;;;;;;;11.52;6.18;;;;;;;5.32;63.86;101430.84;5017036;28;20054;-72
2021/04/16 08:33:18;;;;;;;13.23;6.65;;;;;;;5.37;63.56;101437.78;5015898;28;20367;-71
2021/04/16 08:35:49;;;;;;;11.65;6.20;;;;;;;5.66;62.31;101435.47;5015199;28;20064;-71
2021/04/16 08:38:19;;;;;;;13.87;6.63;;;;;;;5.79;62.48;101426.38;5016722;28;20049;-70
2021/04/16 08:40:52;;;;;;;9.70;6.00;;;;;;;5.81;62.04;101432.50;5016528;28;20061;-71
2021/04/16 08:43:43;;;;;;;8.50;5.63;;;;;;;5.87;62.01;101430.66;5016513;28;20057;-69
2021/04/16 08:46:21;;;;;;;12.10;6.43;;;;;;;5.94;61.08;101434.91;5015287;28;20482;-71
2021/04/16 08:48:53;;;;;;;10.77;5.97;;;;;;;6.02;60.37;101433.00;5016428;28;20435;-68
2021/04/16 08:51:27;;;;;;;9.57;5.60;;;;;;;5.94;60.58;101421.66;5016763;28;20095;-71
2021/04/16 08:54:27;;;;;;;14.25;6.47;;;;;;;6.06;60.67;101424.06;5016072;28;20065;-69
2021/04/16 08:57:15;;;;;;;11.00;5.93;;;;;;;6.17;60.16;101425.63;5015757;28;20050;-70
2021/04/16 08:59:58;;;;;;;10.60;6.13;;;;;;;6.31;59.71;101418.22;5016782;28;20054;-69
2021/04/16 09:02:48;;;;;;;11.80;6.25;;;;;;;6.30;59.16;101428.84;5015649;28;20176;-69
2021/04/16 09:05:32;;;;;;;9.70;6.45;;;;;;;6.24;59.40;101421.91;5016283;28;20058;-72
2021/04/16 09:08:09;;;;;;;16.30;5.80;;;;;;;6.11;58.83;101424.84;5015503;28;20057;-70
2021/04/16 09:10:38;;;;;;;12.30;6.05;;;;;;;6.20;59.82;101418.47;5015244;28;20062;-71
2021/04/16 09:13:06;;;;;;;9.50;5.50;;;;;;;6.25;58.07;101419.25;5015825;28;20062;-69
2021/04/16 09:15:33;;;;;;;8.77;4.82;;;;;;;6.38;57.11;101413.66;5015847;28;20061;-71
2021/04/16 09:17:59;;;;;;;7.82;5.25;;;;;;;6.35;56.07;101414.59;5015037;28;20050;-71
2021/04/16 09:20:26;;;;;;;7.95;5.05;;;;;;;6.42;56.31;101410.00;5016294;28;20049;-72
2021/04/16 09:22:55;;;;;;;9.52;4.60;;;;;;;6.40;55.13;101411.84;5016001;28;20419;-68
2021/04/16 09:25:40;;;;;;;8.90;4.75;;;;;;;6.39;55.02;101416.25;5016222;28;20054;-70
2021/04/16 09:28:21;;;;;;;17.63;6.78;;;;;;;6.41;65.00;101420.63;5014937;28;20096;-71
2021/04/16 09:30:59;;;;;;;10.00;5.20;;;;;;;6.40;63.30;101422.44;5015733;28;20439;-70
2021/04/16 09:33:37;;;;;;;10.05;5.05;;;;;;;6.53;61.07;101417.72;5015731;28;20072;-71
2021/04/16 09:36:28;;;;;;;6.45;4.72;;;;;;;6.69;58.66;101417.34;5015634;28;20359;-69
2021/04/16 09:39:13;;;;;;;11.07;5.35;;;;;;;6.80;58.36;101412.63;5014974;28;20050;-72
2021/04/16 09:41:44;;;;;;;7.03;4.85;;;;;;;7.08;56.81;101419.88;5014976;28;20072;-70
2021/04/16 09:44:29;;;;;;;9.63;4.18;;;;;;;7.32;54.94;101414.84;5015931;28;20141;-73
2021/04/16 09:47:01;;;;;;;6.05;4.03;;;;;;;7.62;54.68;101406.94;5015481;28;20203;-72
2021/04/16 09:49:34;;;;;;;6.47;4.00;;;;;;;7.81;52.68;101401.97;5015521;28;20337;-71
2021/04/16 09:52:25;;;;;;;8.98;4.45;;;;;;;7.99;53.45;101403.22;5015589;28;20056;-71
2021/04/16 09:54:52;;;;;;;12.10;4.72;;;;;;;8.11;54.64;101403.72;5015600;28;20431;-73
2021/04/16 09:57:26;;;;;;;10.73;4.53;;;;;;;7.96;54.04;101383.81;5015373;28;20046;-72
2021/04/16 09:59:54;;;;;;;7.88;4.32;;;;;;;8.03;53.41;101393.34;5015759;28;20053;-73
2021/04/16 10:02:37;;;;;;;7.45;4.20;;;;;;;8.14;52.95;101399.22;5015699;28;20057;-70
2021/04/16 10:05:30;;;;;;;6.47;4.03;;;;;;;8.38;50.72;101398.47;5015016;28;20046;-70
2021/04/16 10:08:02;;;;;;;11.65;4.10;;;;;;;8.50;52.52;101384.78;5014324;28;20050;-70
2021/04/16 10:10:33;;;;;;;8.15;4.25;;;;;;;8.65;51.60;101383.44;5015379;28;20045;-72
2021/04/16 10:13:22;;;;;;;;;;;;;;;8.44;51.45;101384.97;5014563;28;20064;-71
2021/04/16 10:15:54;;;;;;;9.32;4.47;;;;;;;8.49;51.79;101380.38;5013954;28;19972;-72
2021/04/16 10:18:37;;;;;;;7.53;4.18;;;;;;;8.24;50.74;101375.84;5015398;28;20087;-73
2021/04/16 10:21:04;;;;;;;6.95;4.00;;;;;;;8.48;51.20;101373.31;5015373;28;20149;-70
2021/04/16 10:23:40;;;;;;;8.57;3.85;;;;;;;8.53;50.41;101367.88;5015106;28;20054;-71
2021/04/16 10:44:59;;;;;;;7.40;4.00;;;;;;;10.27;46.29;101342.00;5014940;28;20073;-70
2021/04/16 12:38:42;;;;;;;8.75;3.13;;;;;;;10.72;40.29;101290.34;5016583;28;20705;-71
2021/04/16 12:41:05;;;;;;;7.13;2.92;;;;;;;10.77;40.18;101295.47;5016361;28;20130;-70
2021/04/16 12:43:32;;;;;;;4.90;3.20;;;;;;;10.89;40.70;101294.06;5016277;28;20064;-72
2021/04/16 12:45:59;;;;;;;6.07;3.70;;;;;;;10.95;40.46;101291.13;5016483;28;20050;-70
2021/04/16 12:48:26;;;;;;;5.80;3.50;;;;;;;10.90;40.21;101292.25;5016454;28;20050;-71
2021/04/16 12:50:53;;;;;;;7.72;4.13;;;;;;;10.95;39.72;101288.44;5015012;28;20104;-71
2021/04/16 12:53:21;;;;;;;7.85;4.03;;;;;;;10.95;41.25;101283.09;5015295;28;20070;-69
2021/04/16 12:55:47;;;;;;;4.30;3.35;;;;;;;10.73;38.82;101294.72;5016428;28;20046;-69
2021/04/16 12:58:20;;;;;;;7.18;3.92;;;;;;;10.60;39.68;101288.19;5016559;28;20050;-71
2021/04/16 13:00:48;;;;;;;5.32;3.72;;;;;;;10.67;40.68;101288.81;5016718;28;20104;-72
2021/04/16 13:03:21;;;;;;;6.38;3.35;;;;;;;10.75;41.44;101288.47;5015735;28;20050;-69
2021/04/16 13:05:49;;;;;;;8.73;3.85;;;;;;;10.72;41.06;101281.44;5016119;28;20053;-69
2021/04/16 13:08:16;;;;;;;10.20;3.67;;;;;;;10.80;41.91;101283.78;5016469;28;20051;-68
2021/04/16 13:10:43;;;;;;;5.95;3.35;;;;;;;10.94;40.62;101268.00;5016507;28;20313;-70
2021/04/16 13:13:13;;;;;;;8.48;3.83;;;;;;;10.86;40.82;101284.38;5031352;28;20122;-70
2021/04/16 13:15:39;;;;;;;4.43;3.50;;;;;;;10.89;40.22;101285.19;5015989;28;20128;-70
2021/04/16 13:18:19;;;;;;;7.55;3.50;;;;;;;10.90;39.82;101281.56;5016191;28;20195;-70
2021/04/16 13:20:48;;;;;;;7.63;3.60;;;;;;;10.96;40.46;101283.97;5016078;28;20054;-69
2021/04/16 13:23:18;;;;;;;6.60;3.05;;;;;;;10.71;40.27;101277.03;5016329;28;20058;-71
2021/04/16 13:25:44;;;;;;;3.17;2.63;;;;;;;10.67;39.79;101278.13;5015088;28;20049;-68
2021/04/16 13:28:11;;;;;;;3.47;2.65;;;;;;;10.58;40.33;101279.38;5015226;28;20241;-69
2021/04/16 13:30:38;;;;;;;6.50;3.75;;;;;;;10.79;40.54;101271.38;5014854;28;20128;-70
2021/04/16 13:33:16;;;;;;;4.75;2.70;;;;;;;10.87;40.46;101274.56;5015799;28;20061;-68
2021/04/16 13:35:45;;;;;;;4.22;3.08;;;;;;;10.79;39.89;101263.38;5015743;28;20064;-69
2021/04/16 13:38:19;;;;;;;4.80;2.90;;;;;;;10.85;39.66;101255.94;5014834;28;20077;-70
2021/04/16 13:40:45;;;;;;;3.75;3.03;;;;;;;11.31;39.90;101246.75;5015501;28;20064;-70
2021/04/16 13:43:12;;;;;;;5.07;2.97;;;;;;;11.64;37.79;101255.91;5015556;28;20052;-70
2021/04/16 13:45:39;;;;;;;5.10;2.90;;;;;;;12.00;37.79;101238.16;5015651;28;20060;-73
2021/04/16 13:48:06;;;;;;;5.82;2.65;;;;;;;11.84;36.46;101238.91;5015509;28;20053;-72
2021/04/16 13:50:34;;;;;;;4.20;2.75;;;;;;;11.85;37.68;101237.97;5015379;28;20050;-69
2021/04/16 13:53:00;;;;;;;5.50;3.10;;;;;;;11.92;38.55;101238.53;5015811;28;20148;-72